sensor_id;sensor_type;location;lat;lon;timestamp;P1;durP1;ratioP1;P2;durP2;ratioP2
56997;SDS011;42890;44.244;22.530;2023-08-21T00:00:24;16.15;;;14.63;;
56997;SDS011;42890;44.244;22.530;2023-08-21T00:02:50;18.38;;;13.82;;
56997;SDS011;42890;44.244;22.530;2023-08-21T00:05:17;14.75;;;13.45;;
56997;SDS011;42890;44.244;22.530;2023-08-21T00:07:43;14.00;;;12.80;;
56997;SDS011;42890;44.244;22.530;2023-08-21T00:10:10;15.93;;;13.63;;
56997;SDS011;42890;44.244;22.530;2023-08-21T00:12:39;15.40;;;13.88;;
56997;SDS011;42890;44.244;22.530;2023-08-21T00:15:05;13.77;;;12.57;;
56997;SDS011;42890;44.244;22.530;2023-08-21T00:17:31;13.85;;;12.13;;
56997;SDS011;42890;44.244;22.530;2023-08-21T00:19:58;13.70;;;12.30;;
56997;SDS011;42890;44.244;22.530;2023-08-21T00:22:24;14.23;;;12.02;;
56997;SDS011;42890;44.244;22.530;2023-08-21T00:24:50;13.65;;;12.43;;
56997;SDS011;42890;44.244;22.530;2023-08-21T00:27:16;14.77;;;13.52;;
56997;SDS011;42890;44.244;22.530;2023-08-21T00:29:42;15.73;;;14.32;;
56997;SDS011;42890;44.244;22.530;2023-08-21T00:32:08;17.30;;;15.60;;
56997;SDS011;42890;44.244;22.530;2023-08-21T00:34:37;17.88;;;16.08;;
56997;SDS011;42890;44.244;22.530;2023-08-21T00:37:03;18.15;;;16.48;;
56997;SDS011;42890;44.244;22.530;2023-08-21T00:39:29;18.05;;;16.15;;
56997;SDS011;42890;44.244;22.530;2023-08-21T00:41:55;17.52;;;15.98;;
56997;SDS011;42890;44.244;22.530;2023-08-21T00:44:21;18.00;;;16.42;;
56997;SDS011;42890;44.244;22.530;2023-08-21T00:46:47;17.33;;;15.65;;
56997;SDS011;42890;44.244;22.530;2023-08-21T00:49:14;18.73;;;15.55;;
56997;SDS011;42890;44.244;22.530;2023-08-21T00:51:40;17.30;;;15.65;;
56997;SDS011;42890;44.244;22.530;2023-08-21T00:54:06;15.75;;;14.45;;
56997;SDS011;42890;44.244;22.530;2023-08-21T00:56:32;15.30;;;13.82;;
56997;SDS011;42890;44.244;22.530;2023-08-21T00:58:59;14.68;;;13.23;;
56997;SDS011;42890;44.244;22.530;2023-08-21T01:01:26;14.27;;;12.95;;
56997;SDS011;42890;44.244;22.530;2023-08-21T01:03:52;14.40;;;13.07;;
56997;SDS011;42890;44.244;22.530;2023-08-21T01:06:18;15.15;;;13.32;;
56997;SDS011;42890;44.244;22.530;2023-08-21T01:08:59;15.60;;;14.18;;
56997;SDS011;42890;44.244;22.530;2023-08-21T01:11:38;15.75;;;13.85;;
56997;SDS011;42890;44.244;22.530;2023-08-21T01:14:10;14.80;;;13.50;;
56997;SDS011;42890;44.244;22.530;2023-08-21T01:16:38;15.02;;;13.50;;
56997;SDS011;42890;44.244;22.530;2023-08-21T01:19:07;14.95;;;13.48;;
56997;SDS011;42890;44.244;22.530;2023-08-21T01:21:36;14.18;;;12.73;;
56997;SDS011;42890;44.244;22.530;2023-08-21T01:24:02;15.00;;;13.68;;
56997;SDS011;42890;44.244;22.530;2023-08-21T01:26:28;16.63;;;14.75;;
56997;SDS011;42890;44.244;22.530;2023-08-21T01:28:54;17.08;;;15.38;;
56997;SDS011;42890;44.244;22.530;2023-08-21T01:33:53;17.05;;;15.25;;
56997;SDS011;42890;44.244;22.530;2023-08-21T01:36:22;16.02;;;14.65;;
56997;SDS011;42890;44.244;22.530;2023-08-21T01:38:49;15.80;;;14.40;;
56997;SDS011;42890;44.244;22.530;2023-08-21T01:41:15;16.80;;;15.40;;
56997;SDS011;42890;44.244;22.530;2023-08-21T01:43:41;17.40;;;15.73;;
56997;SDS011;42890;44.244;22.530;2023-08-21T01:46:07;16.98;;;15.30;;
56997;SDS011;42890;44.244;22.530;2023-08-21T01:48:33;18.02;;;15.52;;
56997;SDS011;42890;44.244;22.530;2023-08-21T01:51:02;17.73;;;15.50;;
56997;SDS011;42890;44.244;22.530;2023-08-21T01:53:29;14.93;;;13.63;;
56997;SDS011;42890;44.244;22.530;2023-08-21T01:55:55;15.90;;;14.13;;
56997;SDS011;42890;44.244;22.530;2023-08-21T01:58:21;15.05;;;13.75;;
56997;SDS011;42890;44.244;22.530;2023-08-21T02:00:47;15.18;;;13.93;;
56997;SDS011;42890;44.244;22.530;2023-08-21T02:03:13;15.90;;;14.18;;
56997;SDS011;42890;44.244;22.530;2023-08-21T02:05:40;15.68;;;14.13;;
56997;SDS011;42890;44.244;22.530;2023-08-21T02:08:06;14.85;;;13.43;;
56997;SDS011;42890;44.244;22.530;2023-08-21T02:10:33;15.23;;;13.82;;
56997;SDS011;42890;44.244;22.530;2023-08-21T02:12:59;15.60;;;14.02;;
56997;SDS011;42890;44.244;22.530;2023-08-21T02:15:25;16.38;;;13.63;;
56997;SDS011;42890;44.244;22.530;2023-08-21T02:17:51;14.25;;;12.85;;
56997;SDS011;42890;44.244;22.530;2023-08-21T02:20:17;17.70;;;14.77;;
56997;SDS011;42890;44.244;22.530;2023-08-21T02:22:43;24.48;;;16.15;;
56997;SDS011;42890;44.244;22.530;2023-08-21T02:25:09;17.30;;;15.52;;
56997;SDS011;42890;44.244;22.530;2023-08-21T02:27:35;17.58;;;15.43;;
56997;SDS011;42890;44.244;22.530;2023-08-21T02:30:02;16.60;;;15.32;;
56997;SDS011;42890;44.244;22.530;2023-08-21T02:32:28;17.30;;;15.48;;
56997;SDS011;42890;44.244;22.530;2023-08-21T02:34:54;16.73;;;15.00;;
56997;SDS011;42890;44.244;22.530;2023-08-21T02:37:20;15.75;;;14.45;;
56997;SDS011;42890;44.244;22.530;2023-08-21T02:39:46;16.27;;;14.88;;
56997;SDS011;42890;44.244;22.530;2023-08-21T02:42:12;15.73;;;14.13;;
56997;SDS011;42890;44.244;22.530;2023-08-21T02:44:39;16.55;;;14.98;;
56997;SDS011;42890;44.244;22.530;2023-08-21T02:47:05;15.60;;;14.25;;
56997;SDS011;42890;44.244;22.530;2023-08-21T02:49:31;16.10;;;14.75;;
56997;SDS011;42890;44.244;22.530;2023-08-21T02:51:57;15.93;;;14.63;;
56997;SDS011;42890;44.244;22.530;2023-08-21T02:54:23;16.20;;;14.30;;
56997;SDS011;42890;44.244;22.530;2023-08-21T02:56:49;15.57;;;14.15;;
56997;SDS011;42890;44.244;22.530;2023-08-21T02:59:15;16.23;;;14.73;;
56997;SDS011;42890;44.244;22.530;2023-08-21T03:01:41;17.30;;;15.77;;
56997;SDS011;42890;44.244;22.530;2023-08-21T03:04:08;17.27;;;15.43;;
56997;SDS011;42890;44.244;22.530;2023-08-21T03:06:34;17.00;;;15.45;;
56997;SDS011;42890;44.244;22.530;2023-08-21T03:09:00;17.70;;;15.77;;
56997;SDS011;42890;44.244;22.530;2023-08-21T03:11:26;18.88;;;17.35;;
56997;SDS011;42890;44.244;22.530;2023-08-21T03:13:52;19.08;;;17.42;;
56997;SDS011;42890;44.244;22.530;2023-08-21T03:16:18;18.83;;;17.42;;
56997;SDS011;42890;44.244;22.530;2023-08-21T03:18:57;17.95;;;16.48;;
56997;SDS011;42890;44.244;22.530;2023-08-21T03:21:24;19.25;;;17.50;;
56997;SDS011;42890;44.244;22.530;2023-08-21T03:23:51;17.20;;;15.80;;
56997;SDS011;42890;44.244;22.530;2023-08-21T03:26:17;19.38;;;17.55;;
56997;SDS011;42890;44.244;22.530;2023-08-21T03:28:43;18.17;;;16.52;;
56997;SDS011;42890;44.244;22.530;2023-08-21T03:31:09;17.80;;;16.30;;
56997;SDS011;42890;44.244;22.530;2023-08-21T03:33:35;17.95;;;16.25;;
56997;SDS011;42890;44.244;22.530;2023-08-21T03:36:01;17.85;;;16.05;;
56997;SDS011;42890;44.244;22.530;2023-08-21T03:38:28;18.17;;;16.58;;
56997;SDS011;42890;44.244;22.530;2023-08-21T03:40:54;17.15;;;15.50;;
56997;SDS011;42890;44.244;22.530;2023-08-21T03:43:20;18.30;;;16.65;;
56997;SDS011;42890;44.244;22.530;2023-08-21T03:45:46;18.80;;;17.17;;
56997;SDS011;42890;44.244;22.530;2023-08-21T03:48:12;17.88;;;16.15;;
56997;SDS011;42890;44.244;22.530;2023-08-21T03:50:38;18.38;;;16.95;;
56997;SDS011;42890;44.244;22.530;2023-08-21T03:53:05;17.40;;;15.90;;
56997;SDS011;42890;44.244;22.530;2023-08-21T03:55:31;18.05;;;16.70;;
56997;SDS011;42890;44.244;22.530;2023-08-21T03:57:57;17.83;;;16.23;;
56997;SDS011;42890;44.244;22.530;2023-08-21T04:00:23;18.63;;;17.10;;
56997;SDS011;42890;44.244;22.530;2023-08-21T04:02:49;19.02;;;17.63;;
56997;SDS011;42890;44.244;22.530;2023-08-21T04:05:15;19.20;;;17.70;;
56997;SDS011;42890;44.244;22.530;2023-08-21T04:07:41;19.17;;;17.40;;
56997;SDS011;42890;44.244;22.530;2023-08-21T04:10:07;34.13;;;30.45;;
56997;SDS011;42890;44.244;22.530;2023-08-21T04:12:34;26.95;;;22.67;;
56997;SDS011;42890;44.244;22.530;2023-08-21T04:15:00;19.83;;;18.08;;
56997;SDS011;42890;44.244;22.530;2023-08-21T04:17:26;20.50;;;18.65;;
56997;SDS011;42890;44.244;22.530;2023-08-21T04:19:52;21.65;;;19.85;;
56997;SDS011;42890;44.244;22.530;2023-08-21T04:22:18;19.23;;;17.63;;
56997;SDS011;42890;44.244;22.530;2023-08-21T04:24:44;19.45;;;17.95;;
56997;SDS011;42890;44.244;22.530;2023-08-21T04:27:10;18.90;;;17.33;;
56997;SDS011;42890;44.244;22.530;2023-08-21T04:29:37;19.92;;;17.65;;
56997;SDS011;42890;44.244;22.530;2023-08-21T04:32:04;19.23;;;17.52;;
56997;SDS011;42890;44.244;22.530;2023-08-21T04:34:32;19.35;;;17.65;;
56997;SDS011;42890;44.244;22.530;2023-08-21T04:36:58;21.98;;;18.75;;
56997;SDS011;42890;44.244;22.530;2023-08-21T04:39:24;19.85;;;18.02;;
56997;SDS011;42890;44.244;22.530;2023-08-21T04:41:51;20.45;;;18.75;;
56997;SDS011;42890;44.244;22.530;2023-08-21T04:44:17;18.88;;;17.35;;
56997;SDS011;42890;44.244;22.530;2023-08-21T04:46:47;17.42;;;15.73;;
56997;SDS011;42890;44.244;22.530;2023-08-21T04:49:13;17.55;;;16.15;;
56997;SDS011;42890;44.244;22.530;2023-08-21T04:51:39;16.85;;;15.38;;
56997;SDS011;42890;44.244;22.530;2023-08-21T04:54:09;16.45;;;14.82;;
56997;SDS011;42890;44.244;22.530;2023-08-21T04:56:37;17.77;;;16.10;;
56997;SDS011;42890;44.244;22.530;2023-08-21T04:59:03;16.05;;;14.63;;
56997;SDS011;42890;44.244;22.530;2023-08-21T05:01:29;17.38;;;15.65;;
56997;SDS011;42890;44.244;22.530;2023-08-21T05:03:55;17.63;;;15.82;;
56997;SDS011;42890;44.244;22.530;2023-08-21T05:06:21;17.38;;;15.63;;
56997;SDS011;42890;44.244;22.530;2023-08-21T05:08:48;17.13;;;15.48;;
56997;SDS011;42890;44.244;22.530;2023-08-21T05:11:14;16.15;;;14.82;;
56997;SDS011;42890;44.244;22.530;2023-08-21T05:13:40;16.42;;;14.73;;
56997;SDS011;42890;44.244;22.530;2023-08-21T05:16:06;16.58;;;14.93;;
56997;SDS011;42890;44.244;22.530;2023-08-21T05:18:33;15.57;;;14.15;;
56997;SDS011;42890;44.244;22.530;2023-08-21T05:20:59;15.82;;;14.18;;
56997;SDS011;42890;44.244;22.530;2023-08-21T05:23:25;15.82;;;14.43;;
56997;SDS011;42890;44.244;22.530;2023-08-21T05:25:52;16.98;;;14.30;;
56997;SDS011;42890;44.244;22.530;2023-08-21T05:28:18;15.98;;;14.57;;
56997;SDS011;42890;44.244;22.530;2023-08-21T05:30:46;15.43;;;14.13;;
56997;SDS011;42890;44.244;22.530;2023-08-21T05:33:13;17.23;;;15.63;;
56997;SDS011;42890;44.244;22.530;2023-08-21T05:35:41;16.13;;;14.23;;
56997;SDS011;42890;44.244;22.530;2023-08-21T05:38:08;16.13;;;14.63;;
56997;SDS011;42890;44.244;22.530;2023-08-21T05:40:35;15.63;;;14.02;;
56997;SDS011;42890;44.244;22.530;2023-08-21T05:43:01;18.48;;;14.05;;
56997;SDS011;42890;44.244;22.530;2023-08-21T05:45:27;15.20;;;13.88;;
56997;SDS011;42890;44.244;22.530;2023-08-21T05:47:54;14.80;;;13.45;;
56997;SDS011;42890;44.244;22.530;2023-08-21T05:50:20;15.43;;;13.88;;
56997;SDS011;42890;44.244;22.530;2023-08-21T05:52:47;14.00;;;12.68;;
56997;SDS011;42890;44.244;22.530;2023-08-21T05:55:13;16.20;;;13.60;;
56997;SDS011;42890;44.244;22.530;2023-08-21T05:57:39;14.20;;;12.70;;
56997;SDS011;42890;44.244;22.530;2023-08-21T06:00:06;14.88;;;13.45;;
56997;SDS011;42890;44.244;22.530;2023-08-21T06:02:35;14.32;;;12.82;;
56997;SDS011;42890;44.244;22.530;2023-08-21T06:05:01;13.15;;;12.10;;
56997;SDS011;42890;44.244;22.530;2023-08-21T06:07:28;14.55;;;13.27;;
56997;SDS011;42890;44.244;22.530;2023-08-21T06:09:54;15.68;;;14.18;;
56997;SDS011;42890;44.244;22.530;2023-08-21T06:12:20;15.85;;;14.38;;
56997;SDS011;42890;44.244;22.530;2023-08-21T06:14:46;15.52;;;14.23;;
56997;SDS011;42890;44.244;22.530;2023-08-21T06:17:12;15.07;;;13.85;;
56997;SDS011;42890;44.244;22.530;2023-08-21T06:19:38;14.77;;;13.65;;
56997;SDS011;42890;44.244;22.530;2023-08-21T06:22:05;20.45;;;14.70;;
56997;SDS011;42890;44.244;22.530;2023-08-21T06:24:31;25.15;;;14.93;;
56997;SDS011;42890;44.244;22.530;2023-08-21T06:26:57;14.80;;;13.50;;
56997;SDS011;42890;44.244;22.530;2023-08-21T06:29:23;13.50;;;12.40;;
56997;SDS011;42890;44.244;22.530;2023-08-21T06:31:50;16.80;;;13.30;;
56997;SDS011;42890;44.244;22.530;2023-08-21T06:34:16;13.77;;;12.68;;
56997;SDS011;42890;44.244;22.530;2023-08-21T06:36:42;13.82;;;12.63;;
56997;SDS011;42890;44.244;22.530;2023-08-21T06:39:08;14.07;;;12.70;;
56997;SDS011;42890;44.244;22.530;2023-08-21T06:41:34;13.90;;;12.18;;
56997;SDS011;42890;44.244;22.530;2023-08-21T06:44:00;13.68;;;12.43;;
56997;SDS011;42890;44.244;22.530;2023-08-21T06:46:26;12.70;;;11.70;;
56997;SDS011;42890;44.244;22.530;2023-08-21T06:48:52;13.02;;;11.90;;
56997;SDS011;42890;44.244;22.530;2023-08-21T06:51:18;13.60;;;11.13;;
56997;SDS011;42890;44.244;22.530;2023-08-21T06:53:45;12.63;;;11.15;;
56997;SDS011;42890;44.244;22.530;2023-08-21T06:56:11;11.63;;;10.25;;
56997;SDS011;42890;44.244;22.530;2023-08-21T06:58:37;12.30;;;11.05;;
56997;SDS011;42890;44.244;22.530;2023-08-21T07:01:04;11.02;;;9.98;;
56997;SDS011;42890;44.244;22.530;2023-08-21T07:03:30;11.43;;;10.15;;
56997;SDS011;42890;44.244;22.530;2023-08-21T07:05:57;11.10;;;9.98;;
56997;SDS011;42890;44.244;22.530;2023-08-21T07:08:24;10.77;;;9.70;;
56997;SDS011;42890;44.244;22.530;2023-08-21T07:10:50;12.75;;;9.73;;
56997;SDS011;42890;44.244;22.530;2023-08-21T07:13:16;13.35;;;9.55;;
56997;SDS011;42890;44.244;22.530;2023-08-21T07:15:42;12.50;;;9.45;;
56997;SDS011;42890;44.244;22.530;2023-08-21T07:18:08;12.98;;;10.02;;
56997;SDS011;42890;44.244;22.530;2023-08-21T07:20:35;11.27;;;9.68;;
56997;SDS011;42890;44.244;22.530;2023-08-21T07:23:01;11.00;;;9.70;;
56997;SDS011;42890;44.244;22.530;2023-08-21T07:25:27;10.82;;;9.60;;
56997;SDS011;42890;44.244;22.530;2023-08-21T07:27:54;12.98;;;9.75;;
56997;SDS011;42890;44.244;22.530;2023-08-21T07:30:20;12.73;;;9.88;;
56997;SDS011;42890;44.244;22.530;2023-08-21T07:32:47;11.13;;;9.48;;
56997;SDS011;42890;44.244;22.530;2023-08-21T07:35:13;10.85;;;9.75;;
56997;SDS011;42890;44.244;22.530;2023-08-21T07:37:43;10.63;;;9.63;;
56997;SDS011;42890;44.244;22.530;2023-08-21T07:40:09;10.73;;;9.65;;
56997;SDS011;42890;44.244;22.530;2023-08-21T07:42:35;13.02;;;10.77;;
56997;SDS011;42890;44.244;22.530;2023-08-21T07:45:01;12.18;;;10.60;;
56997;SDS011;42890;44.244;22.530;2023-08-21T07:47:27;15.27;;;11.52;;
56997;SDS011;42890;44.244;22.530;2023-08-21T07:49:54;14.05;;;12.55;;
56997;SDS011;42890;44.244;22.530;2023-08-21T07:52:20;25.00;;;13.15;;
56997;SDS011;42890;44.244;22.530;2023-08-21T07:54:50;14.27;;;12.60;;
56997;SDS011;42890;44.244;22.530;2023-08-21T07:57:17;15.30;;;11.10;;
56997;SDS011;42890;44.244;22.530;2023-08-21T07:59:43;15.02;;;12.20;;
56997;SDS011;42890;44.244;22.530;2023-08-21T08:02:09;14.80;;;12.77;;
56997;SDS011;42890;44.244;22.530;2023-08-21T08:04:39;13.88;;;12.60;;
56997;SDS011;42890;44.244;22.530;2023-08-21T08:07:05;13.05;;;11.80;;
56997;SDS011;42890;44.244;22.530;2023-08-21T08:09:31;18.33;;;12.85;;
56997;SDS011;42890;44.244;22.530;2023-08-21T08:11:57;14.80;;;11.98;;
56997;SDS011;42890;44.244;22.530;2023-08-21T08:14:23;14.10;;;11.10;;
56997;SDS011;42890;44.244;22.530;2023-08-21T08:16:49;13.25;;;11.13;;
56997;SDS011;42890;44.244;22.530;2023-08-21T08:19:15;13.90;;;11.25;;
56997;SDS011;42890;44.244;22.530;2023-08-21T08:21:42;12.35;;;11.02;;
56997;SDS011;42890;44.244;22.530;2023-08-21T08:24:08;19.48;;;11.25;;
56997;SDS011;42890;44.244;22.530;2023-08-21T08:26:34;17.05;;;10.82;;
56997;SDS011;42890;44.244;22.530;2023-08-21T08:29:01;15.82;;;10.57;;
56997;SDS011;42890;44.244;22.530;2023-08-21T08:31:27;11.30;;;10.27;;
56997;SDS011;42890;44.244;22.530;2023-08-21T08:33:53;12.77;;;10.95;;
56997;SDS011;42890;44.244;22.530;2023-08-21T08:36:20;15.13;;;10.40;;
56997;SDS011;42890;44.244;22.530;2023-08-21T08:38:46;10.88;;;9.98;;
56997;SDS011;42890;44.244;22.530;2023-08-21T08:41:25;14.90;;;10.23;;
56997;SDS011;42890;44.244;22.530;2023-08-21T08:43:57;11.27;;;9.75;;
56997;SDS011;42890;44.244;22.530;2023-08-21T08:46:23;15.02;;;9.90;;
56997;SDS011;42890;44.244;22.530;2023-08-21T08:48:51;15.35;;;9.27;;
56997;SDS011;42890;44.244;22.530;2023-08-21T08:51:17;10.70;;;9.70;;
56997;SDS011;42890;44.244;22.530;2023-08-21T08:53:44;13.85;;;11.05;;
56997;SDS011;42890;44.244;22.530;2023-08-21T08:56:10;13.52;;;11.07;;
56997;SDS011;42890;44.244;22.530;2023-08-21T08:58:37;14.00;;;11.15;;
56997;SDS011;42890;44.244;22.530;2023-08-21T09:01:03;13.57;;;11.68;;
56997;SDS011;42890;44.244;22.530;2023-08-21T09:03:29;14.13;;;10.88;;
56997;SDS011;42890;44.244;22.530;2023-08-21T09:05:55;12.85;;;11.50;;
56997;SDS011;42890;44.244;22.530;2023-08-21T09:08:25;13.52;;;10.20;;
56997;SDS011;42890;44.244;22.530;2023-08-21T09:10:51;13.48;;;10.70;;
56997;SDS011;42890;44.244;22.530;2023-08-21T09:13:19;16.33;;;9.90;;
56997;SDS011;42890;44.244;22.530;2023-08-21T09:15:46;10.43;;;9.38;;
56997;SDS011;42890;44.244;22.530;2023-08-21T09:18:12;13.98;;;9.80;;
56997;SDS011;42890;44.244;22.530;2023-08-21T09:20:40;10.00;;;8.77;;
56997;SDS011;42890;44.244;22.530;2023-08-21T09:23:06;10.80;;;7.88;;
56997;SDS011;42890;44.244;22.530;2023-08-21T09:25:39;9.10;;;7.50;;
56997;SDS011;42890;44.244;22.530;2023-08-21T09:28:08;8.05;;;6.70;;
56997;SDS011;42890;44.244;22.530;2023-08-21T09:30:50;11.30;;;7.40;;
56997;SDS011;42890;44.244;22.530;2023-08-21T09:33:20;23.63;;;7.00;;
56997;SDS011;42890;44.244;22.530;2023-08-21T09:35:48;13.60;;;6.55;;
56997;SDS011;42890;44.244;22.530;2023-08-21T09:38:14;13.60;;;6.35;;
56997;SDS011;42890;44.244;22.530;2023-08-21T09:40:41;7.25;;;6.55;;
56997;SDS011;42890;44.244;22.530;2023-08-21T09:43:10;9.45;;;7.00;;
56997;SDS011;42890;44.244;22.530;2023-08-21T09:45:37;10.52;;;6.53;;
56997;SDS011;42890;44.244;22.530;2023-08-21T09:48:04;8.85;;;6.57;;
56997;SDS011;42890;44.244;22.530;2023-08-21T09:50:30;10.07;;;6.38;;
56997;SDS011;42890;44.244;22.530;2023-08-21T09:52:57;9.60;;;6.75;;
56997;SDS011;42890;44.244;22.530;2023-08-21T09:55:24;11.77;;;6.75;;
56997;SDS011;42890;44.244;22.530;2023-08-21T09:57:58;7.57;;;6.88;;
56997;SDS011;42890;44.244;22.530;2023-08-21T10:00:34;11.27;;;6.45;;
56997;SDS011;42890;44.244;22.530;2023-08-21T10:03:01;8.98;;;6.20;;
56997;SDS011;42890;44.244;22.530;2023-08-21T10:05:28;12.98;;;6.18;;
56997;SDS011;42890;44.244;22.530;2023-08-21T10:07:55;10.05;;;6.50;;
56997;SDS011;42890;44.244;22.530;2023-08-21T10:10:22;11.20;;;6.40;;
56997;SDS011;42890;44.244;22.530;2023-08-21T10:12:48;8.93;;;6.55;;
56997;SDS011;42890;44.244;22.530;2023-08-21T10:15:15;10.43;;;6.32;;
56997;SDS011;42890;44.244;22.530;2023-08-21T10:17:41;9.05;;;6.70;;
56997;SDS011;42890;44.244;22.530;2023-08-21T10:20:08;8.30;;;6.68;;
56997;SDS011;42890;44.244;22.530;2023-08-21T10:22:38;15.00;;;6.72;;
56997;SDS011;42890;44.244;22.530;2023-08-21T10:25:13;8.70;;;6.50;;
56997;SDS011;42890;44.244;22.530;2023-08-21T10:27:40;12.32;;;6.40;;
56997;SDS011;42890;44.244;22.530;2023-08-21T10:30:14;10.00;;;6.63;;
56997;SDS011;42890;44.244;22.530;2023-08-21T10:32:45;10.88;;;6.35;;
56997;SDS011;42890;44.244;22.530;2023-08-21T10:35:14;6.65;;;6.05;;
56997;SDS011;42890;44.244;22.530;2023-08-21T10:40:28;8.32;;;6.18;;
56997;SDS011;42890;44.244;22.530;2023-08-21T10:42:55;6.38;;;5.80;;
56997;SDS011;42890;44.244;22.530;2023-08-21T10:45:21;8.73;;;6.35;;
56997;SDS011;42890;44.244;22.530;2023-08-21T10:47:47;10.02;;;6.43;;
56997;SDS011;42890;44.244;22.530;2023-08-21T10:50:15;9.90;;;5.93;;
56997;SDS011;42890;44.244;22.530;2023-08-21T10:52:42;9.65;;;5.97;;
56997;SDS011;42890;44.244;22.530;2023-08-21T10:55:12;8.30;;;5.78;;
56997;SDS011;42890;44.244;22.530;2023-08-21T10:57:39;9.60;;;5.97;;
56997;SDS011;42890;44.244;22.530;2023-08-21T11:00:11;7.35;;;6.25;;
56997;SDS011;42890;44.244;22.530;2023-08-21T11:02:39;6.90;;;6.10;;
56997;SDS011;42890;44.244;22.530;2023-08-21T11:05:05;7.70;;;5.82;;
56997;SDS011;42890;44.244;22.530;2023-08-21T11:07:36;6.20;;;5.57;;
56997;SDS011;42890;44.244;22.530;2023-08-21T11:10:03;7.80;;;5.60;;
56997;SDS011;42890;44.244;22.530;2023-08-21T11:12:30;9.52;;;6.13;;
56997;SDS011;42890;44.244;22.530;2023-08-21T11:14:56;6.95;;;5.70;;
56997;SDS011;42890;44.244;22.530;2023-08-21T11:17:22;7.80;;;5.65;;
56997;SDS011;42890;44.244;22.530;2023-08-21T11:19:48;9.63;;;5.70;;
56997;SDS011;42890;44.244;22.530;2023-08-21T11:22:15;8.75;;;6.18;;
56997;SDS011;42890;44.244;22.530;2023-08-21T11:24:43;9.35;;;5.50;;
56997;SDS011;42890;44.244;22.530;2023-08-21T11:27:10;7.20;;;5.82;;
56997;SDS011;42890;44.244;22.530;2023-08-21T11:29:43;8.65;;;6.13;;
56997;SDS011;42890;44.244;22.530;2023-08-21T11:32:10;6.70;;;6.10;;
56997;SDS011;42890;44.244;22.530;2023-08-21T11:34:36;19.50;;;6.13;;
56997;SDS011;42890;44.244;22.530;2023-08-21T11:37:03;11.85;;;6.00;;
56997;SDS011;42890;44.244;22.530;2023-08-21T11:39:47;6.40;;;5.80;;
56997;SDS011;42890;44.244;22.530;2023-08-21T11:42:13;7.25;;;6.20;;
56997;SDS011;42890;44.244;22.530;2023-08-21T11:44:43;9.00;;;6.13;;
56997;SDS011;42890;44.244;22.530;2023-08-21T11:47:10;10.32;;;6.35;;
56997;SDS011;42890;44.244;22.530;2023-08-21T11:49:38;8.70;;;6.35;;
56997;SDS011;42890;44.244;22.530;2023-08-21T11:52:06;8.25;;;5.72;;
56997;SDS011;42890;44.244;22.530;2023-08-21T11:54:36;7.07;;;5.88;;
56997;SDS011;42890;44.244;22.530;2023-08-21T11:57:05;9.10;;;5.72;;
56997;SDS011;42890;44.244;22.530;2023-08-21T11:59:32;8.25;;;5.30;;
56997;SDS011;42890;44.244;22.530;2023-08-21T12:01:58;7.10;;;5.55;;
56997;SDS011;42890;44.244;22.530;2023-08-21T12:04:24;5.85;;;5.20;;
56997;SDS011;42890;44.244;22.530;2023-08-21T12:06:51;7.55;;;5.65;;
56997;SDS011;42890;44.244;22.530;2023-08-21T12:09:18;15.05;;;5.43;;
56997;SDS011;42890;44.244;22.530;2023-08-21T12:11:44;7.80;;;5.35;;
56997;SDS011;42890;44.244;22.530;2023-08-21T12:14:10;8.20;;;5.25;;
56997;SDS011;42890;44.244;22.530;2023-08-21T12:16:37;9.52;;;5.10;;
56997;SDS011;42890;44.244;22.530;2023-08-21T12:19:03;7.03;;;5.22;;
56997;SDS011;42890;44.244;22.530;2023-08-21T12:21:29;5.70;;;5.20;;
56997;SDS011;42890;44.244;22.530;2023-08-21T12:23:55;11.73;;;5.47;;
56997;SDS011;42890;44.244;22.530;2023-08-21T12:26:22;5.60;;;4.80;;
56997;SDS011;42890;44.244;22.530;2023-08-21T12:28:48;7.70;;;5.15;;
56997;SDS011;42890;44.244;22.530;2023-08-21T12:31:14;11.15;;;6.03;;
56997;SDS011;42890;44.244;22.530;2023-08-21T12:33:40;8.77;;;5.07;;
56997;SDS011;42890;44.244;22.530;2023-08-21T12:36:07;6.63;;;5.10;;
56997;SDS011;42890;44.244;22.530;2023-08-21T12:38:36;12.07;;;5.30;;
56997;SDS011;42890;44.244;22.530;2023-08-21T12:41:02;5.72;;;4.90;;
56997;SDS011;42890;44.244;22.530;2023-08-21T12:43:28;6.93;;;5.20;;
56997;SDS011;42890;44.244;22.530;2023-08-21T12:45:55;5.93;;;5.35;;
56997;SDS011;42890;44.244;22.530;2023-08-21T12:48:21;9.38;;;5.78;;
56997;SDS011;42890;44.244;22.530;2023-08-21T12:50:47;7.90;;;5.25;;
56997;SDS011;42890;44.244;22.530;2023-08-21T12:53:13;6.60;;;5.60;;
56997;SDS011;42890;44.244;22.530;2023-08-21T12:55:39;15.45;;;5.50;;
56997;SDS011;42890;44.244;22.530;2023-08-21T12:58:06;8.30;;;5.35;;
56997;SDS011;42890;44.244;22.530;2023-08-21T13:00:32;9.65;;;5.00;;
56997;SDS011;42890;44.244;22.530;2023-08-21T13:02:58;7.90;;;5.03;;
56997;SDS011;42890;44.244;22.530;2023-08-21T13:05:25;8.05;;;5.35;;
56997;SDS011;42890;44.244;22.530;2023-08-21T13:07:51;9.30;;;5.43;;
56997;SDS011;42890;44.244;22.530;2023-08-21T13:10:17;5.88;;;5.28;;
56997;SDS011;42890;44.244;22.530;2023-08-21T13:12:43;6.22;;;5.63;;
56997;SDS011;42890;44.244;22.530;2023-08-21T13:15:10;11.90;;;6.03;;
56997;SDS011;42890;44.244;22.530;2023-08-21T13:17:36;11.25;;;5.40;;
56997;SDS011;42890;44.244;22.530;2023-08-21T13:20:02;9.50;;;6.07;;
56997;SDS011;42890;44.244;22.530;2023-08-21T13:22:43;11.57;;;6.30;;
56997;SDS011;42890;44.244;22.530;2023-08-21T13:25:09;11.25;;;6.15;;
56997;SDS011;42890;44.244;22.530;2023-08-21T13:27:35;9.13;;;6.45;;
56997;SDS011;42890;44.244;22.530;2023-08-21T13:30:01;6.15;;;5.60;;
56997;SDS011;42890;44.244;22.530;2023-08-21T13:32:29;7.00;;;6.30;;
56997;SDS011;42890;44.244;22.530;2023-08-21T13:34:55;8.75;;;6.40;;
56997;SDS011;42890;44.244;22.530;2023-08-21T13:37:21;7.68;;;6.97;;
56997;SDS011;42890;44.244;22.530;2023-08-21T13:39:50;11.27;;;7.25;;
56997;SDS011;42890;44.244;22.530;2023-08-21T13:42:16;11.00;;;6.55;;
56997;SDS011;42890;44.244;22.530;2023-08-21T13:44:42;12.48;;;5.70;;
56997;SDS011;42890;44.244;22.530;2023-08-21T13:47:09;6.82;;;4.80;;
56997;SDS011;42890;44.244;22.530;2023-08-21T13:49:36;8.25;;;4.65;;
56997;SDS011;42890;44.244;22.530;2023-08-21T13:52:02;9.77;;;5.25;;
56997;SDS011;42890;44.244;22.530;2023-08-21T13:54:29;7.63;;;5.25;;
56997;SDS011;42890;44.244;22.530;2023-08-21T13:56:55;7.05;;;5.43;;
56997;SDS011;42890;44.244;22.530;2023-08-21T13:59:22;7.45;;;5.28;;
56997;SDS011;42890;44.244;22.530;2023-08-21T14:01:48;5.78;;;5.05;;
56997;SDS011;42890;44.244;22.530;2023-08-21T14:04:14;7.18;;;4.43;;
56997;SDS011;42890;44.244;22.530;2023-08-21T14:06:40;10.88;;;4.43;;
56997;SDS011;42890;44.244;22.530;2023-08-21T14:09:08;8.82;;;3.88;;
56997;SDS011;42890;44.244;22.530;2023-08-21T14:11:34;4.25;;;3.75;;
56997;SDS011;42890;44.244;22.530;2023-08-21T14:14:00;7.82;;;4.00;;
56997;SDS011;42890;44.244;22.530;2023-08-21T14:16:26;5.07;;;3.38;;
56997;SDS011;42890;44.244;22.530;2023-08-21T14:18:53;4.75;;;3.28;;